Time;durP1;ratioP1;P1;durP2;ratioP2;P2;SDS_P1;SDS_P2;PMS_P1;PMS_P2;Temp;Humidity;BMP_temperature;BMP_pressure;BME280_temperature;BME280_humidity;BME280_pressure;Samples;Min_cycle;Max_cycle;Signal;HPM_P1;HPM_P2
2023/01/25 00:00:46;;;;;;;106.50;86.07;;;;;;;0.91;83.82;103621.91;5112488;28;20024;-60
2023/01/25 00:03:11;;;;;;;108.40;85.00;;;;;;;0.94;83.90;103616.72;5091329;28;20035;-60
2023/01/25 00:05:36;;;;;;;108.50;86.60;;;;;;;1.01;83.98;103607.28;5091584;28;20024;-60
2023/01/25 00:08:02;;;;;;;110.40;86.03;;;;;;;0.98;84.11;103602.84;5098663;28;20079;-60
2023/01/25 00:10:27;;;;;;;106.93;85.03;;;;;;;1.01;83.07;103609.91;5110807;28;20031;-60
2023/01/25 00:12:55;;;;;;;107.83;85.83;;;;;;;0.99;83.60;103609.84;5076444;28;20062;-60
2023/01/25 00:15:21;;;;;;;112.43;88.90;;;;;;;1.10;83.40;103608.34;5093966;28;20373;-60
2023/01/25 00:17:46;;;;;;;111.20;87.40;;;;;;;1.05;83.67;103606.47;5109544;28;20038;-61
2023/01/25 00:20:11;;;;;;;109.50;87.13;;;;;;;1.10;83.32;103610.09;5097848;28;20086;-61
2023/01/25 00:22:37;;;;;;;110.83;88.27;;;;;;;1.16;83.75;103610.22;5107656;28;20491;-60
2023/01/25 00:25:03;;;;;;;110.13;88.90;;;;;;;1.12;84.46;103606.66;5099135;28;20012;-60
2023/01/25 00:27:28;;;;;;;109.47;84.73;;;;;;;1.02;84.10;103607.28;5110999;28;20016;-60
2023/01/25 00:29:53;;;;;;;107.53;85.80;;;;;;;1.04;84.43;103605.59;5110302;28;20019;-61
2023/01/25 00:32:19;;;;;;;110.37;87.03;;;;;;;1.06;83.95;103610.84;5106003;28;20027;-60
2023/01/25 00:34:49;;;;;;;116.90;91.20;;;;;;;1.10;84.05;103613.59;5107052;28;20016;-60
2023/01/25 00:37:18;;;;;;;113.78;88.28;;;;;;;1.05;84.71;103609.09;5093788;28;20030;-60
2023/01/25 00:39:44;;;;;;;115.53;87.28;;;;;;;1.02;84.14;103609.03;5091212;28;20036;-61
2023/01/25 00:42:10;;;;;;;115.93;89.13;;;;;;;1.01;83.29;103602.91;5092389;28;20027;-60
2023/01/25 00:44:36;;;;;;;119.93;92.10;;;;;;;1.00;83.67;103602.88;5091995;28;20109;-60
2023/01/25 00:47:01;;;;;;;121.30;91.95;;;;;;;0.98;84.10;103583.63;5092463;28;20028;-60
2023/01/25 00:49:29;;;;;;;118.80;92.33;;;;;;;1.04;83.87;103602.97;5091773;28;20435;-60
2023/01/25 00:51:55;;;;;;;114.22;89.20;;;;;;;0.99;84.34;103598.50;5111602;28;20065;-61
2023/01/25 00:54:21;;;;;;;119.80;91.68;;;;;;;1.05;83.58;103601.25;5095208;28;20019;-60
2023/01/25 00:56:55;;;;;;;116.28;90.00;;;;;;;0.92;83.04;103596.59;5114533;28;20019;-60
2023/01/25 00:59:21;;;;;;;120.20;91.37;;;;;;;0.91;83.17;103598.31;5097492;28;20027;-60
2023/01/25 01:01:47;;;;;;;114.77;91.63;;;;;;;0.86;83.36;103600.84;5113421;28;20386;-60
2023/01/25 01:04:13;;;;;;;120.80;94.90;;;;;;;0.87;84.00;103599.13;5115677;28;20026;-60
2023/01/25 01:06:39;;;;;;;121.17;92.17;;;;;;;0.84;83.54;103591.19;5114034;28;20150;-59
2023/01/25 01:09:07;;;;;;;121.30;92.22;;;;;;;0.80;83.80;103590.25;5114642;28;20034;-60
2023/01/25 01:11:35;;;;;;;122.93;94.70;;;;;;;0.86;84.82;103585.13;5115178;28;20051;-60
2023/01/25 01:14:00;;;;;;;120.77;93.23;;;;;;;0.81;84.37;103578.91;5114988;28;20409;-59
2023/01/25 01:16:28;;;;;;;121.93;92.77;;;;;;;0.82;84.39;103579.78;5114963;28;20115;-60
2023/01/25 01:18:54;;;;;;;118.23;92.50;;;;;;;0.89;85.12;103586.94;5114658;28;20432;-60
2023/01/25 01:21:22;;;;;;;121.93;95.03;;;;;;;0.92;84.72;103583.50;5115303;28;20032;-61
2023/01/25 01:23:47;;;;;;;117.13;90.33;;;;;;;1.00;85.01;103585.44;5097272;28;20538;-60
2023/01/25 01:26:14;;;;;;;120.30;93.03;;;;;;;0.95;84.38;103589.69;5114839;28;20027;-59
2023/01/25 01:28:41;;;;;;;117.20;89.97;;;;;;;0.90;84.52;103583.47;5114680;28;20165;-60
2023/01/25 01:31:12;;;;;;;123.37;93.60;;;;;;;0.92;84.33;103581.78;5114479;28;20076;-60
2023/01/25 01:33:38;;;;;;;122.03;93.67;;;;;;;0.96;84.44;103588.81;5114132;28;20027;-61
2023/01/25 01:36:14;;;;;;;119.67;92.10;;;;;;;1.00;84.12;103588.06;5095909;28;20068;-60
2023/01/25 01:38:43;;;;;;;118.10;92.67;;;;;;;0.86;83.84;103581.63;5112567;28;20028;-61
2023/01/25 01:41:10;;;;;;;127.80;94.13;;;;;;;0.86;84.36;103585.13;5084612;28;20024;-60
2023/01/25 01:43:36;;;;;;;124.00;96.07;;;;;;;0.85;83.65;103580.75;5094543;28;20058;-60
2023/01/25 01:46:12;;;;;;;123.77;93.93;;;;;;;0.88;83.49;103588.69;5097448;28;20065;-60
2023/01/25 01:48:52;;;;;;;123.73;95.00;;;;;;;0.89;84.39;103582.59;5113999;28;20103;-60
2023/01/25 01:51:48;;;;;;;123.35;94.05;;;;;;;0.89;84.06;103590.44;5114280;28;20020;-60
2023/01/25 01:54:27;;;;;;;124.70;95.33;;;;;;;0.83;84.69;103589.44;5080964;28;20032;-60
2023/01/25 01:57:06;;;;;;;123.13;93.75;;;;;;;0.81;84.78;103585.88;5114222;28;20028;-60
2023/01/25 01:59:46;;;;;;;122.93;93.57;;;;;;;0.81;85.22;103580.66;5114010;28;20530;-60
2023/01/25 02:02:13;;;;;;;119.30;92.70;;;;;;;0.83;85.43;103587.69;5088011;28;20387;-60
2023/01/25 02:04:42;;;;;;;124.90;94.27;;;;;;;0.86;85.13;103582.53;5105846;28;20051;-60
2023/01/25 02:07:19;;;;;;;121.63;92.78;;;;;;;0.84;84.68;103581.59;5113151;28;20148;-60
2023/01/25 02:09:44;;;;;;;122.47;93.40;;;;;;;0.83;85.57;103581.56;5096148;28;20078;-61
2023/01/25 02:12:14;;;;;;;122.57;92.17;;;;;;;0.88;85.42;103578.22;5080848;28;20031;-60
2023/01/25 02:14:50;;;;;;;126.15;95.15;;;;;;;0.86;85.32;103587.75;5093931;28;20103;-60
2023/01/25 02:17:33;;;;;;;121.73;91.43;;;;;;;0.87;85.63;103578.16;5111549;28;20053;-60
2023/01/25 02:20:38;;;;;;;124.20;93.97;;;;;;;0.96;84.43;103586.22;5114445;28;20148;-60
2023/01/25 02:23:15;;;;;;;125.03;95.77;;;;;;;0.77;84.60;103579.72;5081283;28;20374;-60
2023/01/25 02:25:41;;;;;;;131.27;98.93;;;;;;;0.72;83.51;103575.22;5111811;28;20406;-60
2023/01/25 02:28:24;;;;;;;126.87;95.83;;;;;;;0.79;84.29;103572.75;5107716;28;20046;-60
2023/01/25 02:30:49;;;;;;;129.63;96.70;;;;;;;0.71;83.76;103555.09;5093427;28;20032;-60
2023/01/25 02:33:15;;;;;;;133.40;98.63;;;;;;;0.73;84.03;103571.72;5110482;28;20049;-59
2023/01/25 02:35:50;;;;;;;134.50;100.53;;;;;;;0.67;83.94;103568.13;5094985;28;20425;-61
2023/01/25 02:38:17;;;;;;;131.47;98.60;;;;;;;0.66;84.38;103566.38;5112796;28;20406;-60
2023/01/25 02:41:03;;;;;;;132.33;99.60;;;;;;;0.72;84.68;103560.38;5108338;28;20401;-60
2023/01/25 02:43:32;;;;;;;133.73;98.87;;;;;;;0.69;84.49;103560.31;5107121;28;20024;-59
2023/01/25 02:46:09;;;;;;;131.07;97.97;;;;;;;0.76;84.57;103554.34;5106972;28;20408;-59
2023/01/25 02:48:35;;;;;;;130.43;97.40;;;;;;;0.75;84.79;103549.97;5101550;28;20031;-60
2023/01/25 02:51:00;;;;;;;130.60;99.23;;;;;;;0.61;84.27;103541.78;5075268;28;20020;-59
2023/01/25 02:53:26;;;;;;;130.57;96.73;;;;;;;0.67;84.78;103546.28;5075380;28;20035;-60
2023/01/25 02:55:51;;;;;;;133.30;100.00;;;;;;;0.69;84.93;103552.44;5074681;28;20016;-60
2023/01/25 02:58:17;;;;;;;133.83;98.70;;;;;;;0.79;85.47;103546.53;5077508;28;20476;-60
2023/01/25 03:00:42;;;;;;;133.80;100.57;;;;;;;0.62;85.62;103543.59;5093869;28;20027;-60
2023/01/25 03:03:07;;;;;;;132.70;98.50;;;;;;;0.73;85.95;103545.53;5113576;28;20458;-59
2023/01/25 03:05:33;;;;;;;135.90;99.50;;;;;;;0.63;85.57;103537.50;5113298;28;20015;-60
2023/01/25 03:07:58;;;;;;;136.07;99.80;;;;;;;0.76;85.88;103546.47;5113375;28;20044;-60
2023/01/25 03:10:24;;;;;;;134.80;99.23;;;;;;;0.75;85.58;103544.72;5094663;28;20020;-59
2023/01/25 03:12:49;;;;;;;132.87;99.07;;;;;;;0.73;85.53;103545.53;5113353;28;20027;-60
2023/01/25 03:15:15;;;;;;;135.50;100.40;;;;;;;0.66;84.99;103529.69;5107460;28;20513;-59
2023/01/25 03:17:40;;;;;;;133.27;98.17;;;;;;;0.78;84.57;103539.56;5091295;28;20065;-60
2023/01/25 03:20:06;;;;;;;133.47;98.10;;;;;;;0.69;85.03;103534.13;5092686;28;20538;-59
2023/01/25 03:22:31;;;;;;;134.63;98.37;;;;;;;0.73;84.92;103525.47;5092754;28;20042;-60
2023/01/25 03:24:57;;;;;;;131.27;97.43;;;;;;;0.81;84.39;103531.75;5092301;28;20099;-60
2023/01/25 03:27:22;;;;;;;134.47;99.27;;;;;;;0.77;84.85;103531.69;5091358;28;20089;-59
2023/01/25 03:29:47;;;;;;;135.23;98.77;;;;;;;0.86;84.87;103531.88;5092111;28;20030;-59
2023/01/25 03:32:15;;;;;;;132.87;99.20;;;;;;;0.82;84.40;103523.03;5093058;28;20081;-59
2023/01/25 03:34:43;;;;;;;136.97;100.60;;;;;;;0.80;85.03;103516.03;5107927;28;20035;-60
2023/01/25 03:37:08;;;;;;;133.87;97.37;;;;;;;0.84;84.79;103507.38;5094496;28;20440;-60
2023/01/25 03:39:34;;;;;;;129.50;96.47;;;;;;;0.76;84.72;103508.94;5112354;28;20102;-60
2023/01/25 03:41:59;;;;;;;134.20;99.60;;;;;;;0.80;85.03;103502.94;5112712;28;20494;-59
2023/01/25 03:44:25;;;;;;;130.10;96.03;;;;;;;0.79;84.51;103512.50;5112830;28;20106;-59
2023/01/25 03:46:50;;;;;;;136.53;100.03;;;;;;;0.70;84.04;103511.44;5094518;28;20063;-59
2023/01/25 03:49:17;;;;;;;132.13;97.13;;;;;;;0.58;84.06;103494.59;5090601;28;20425;-60
2023/01/25 03:51:42;;;;;;;128.63;94.07;;;;;;;0.59;84.63;103511.19;5092381;28;20042;-59
2023/01/25 03:54:09;;;;;;;132.67;97.70;;;;;;;0.59;83.47;103506.88;5091785;28;20024;-60
2023/01/25 03:56:35;;;;;;;129.07;95.67;;;;;;;0.62;84.37;103506.06;5092312;28;20486;-59
2023/01/25 03:59:00;;;;;;;131.20;97.03;;;;;;;0.62;84.08;103506.94;5091712;28;20020;-59
2023/01/25 04:01:26;;;;;;;129.10;95.80;;;;;;;0.63;83.88;103516.53;5092258;28;20375;-60
2023/01/25 04:03:51;;;;;;;131.83;95.87;;;;;;;0.64;84.14;103518.28;5092135;28;20077;-59
2023/01/25 04:06:16;;;;;;;130.57;95.37;;;;;;;0.69;84.55;103507.94;5092665;28;20030;-60
2023/01/25 04:08:44;;;;;;;129.03;96.47;;;;;;;0.74;84.42;103508.03;5091461;28;20048;-60
2023/01/25 04:11:12;;;;;;;129.73;95.50;;;;;;;0.64;84.33;103499.09;5090753;28;20027;-60
2023/01/25 04:13:38;;;;;;;127.93;93.77;;;;;;;0.68;83.45;103507.06;5096977;28;20099;-59
2023/01/25 04:16:06;;;;;;;125.43;92.70;;;;;;;0.64;82.87;103507.81;5098670;28;20115;-59
2023/01/25 04:18:31;;;;;;;127.50;94.13;;;;;;;0.54;83.01;103502.38;5112008;28;20073;-60
2023/01/25 04:20:57;;;;;;;126.73;92.67;;;;;;;0.53;83.67;103509.34;5102305;28;20023;-60
2023/01/25 04:23:25;;;;;;;129.00;95.07;;;;;;;0.51;84.02;103503.19;5111568;28;20539;-60
2023/01/25 04:26:03;;;;;;;127.30;93.90;;;;;;;0.56;83.67;103498.03;5110808;28;20023;-59
2023/01/25 04:28:30;;;;;;;127.33;92.47;;;;;;;0.58;83.32;103491.09;5111017;28;20019;-59
2023/01/25 04:30:56;;;;;;;122.70;89.77;;;;;;;0.53;82.75;103491.03;5104982;28;20415;-59
2023/01/25 04:33:24;;;;;;;123.63;92.20;;;;;;;0.43;82.96;103495.16;5097919;28;20061;-59
2023/01/25 04:35:50;;;;;;;121.80;91.37;;;;;;;0.44;83.30;103494.31;5106472;28;20032;-60
2023/01/25 04:38:16;;;;;;;128.50;91.37;;;;;;;0.36;83.43;103495.88;5077743;28;20032;-59
2023/01/25 04:40:42;;;;;;;129.43;91.10;;;;;;;0.31;83.78;103494.88;5103698;28;20050;-60
2023/01/25 04:43:09;;;;;;;118.80;89.90;;;;;;;0.28;83.32;103496.56;5116207;28;20027;-60
2023/01/25 04:45:37;;;;;;;116.57;88.10;;;;;;;0.23;83.04;103492.09;5116145;28;20023;-59
2023/01/25 04:48:08;;;;;;;118.37;89.07;;;;;;;0.38;83.13;103488.06;5103675;28;20024;-59
2023/01/25 04:50:34;;;;;;;120.30;90.30;;;;;;;0.28;83.61;103488.72;5077437;28;20498;-59
2023/01/25 04:53:00;;;;;;;120.40;89.83;;;;;;;0.34;83.56;103486.22;5095508;28;20417;-59
2023/01/25 04:55:25;;;;;;;115.40;87.50;;;;;;;0.26;83.47;103475.56;5095034;28;20107;-60
2023/01/25 04:57:50;;;;;;;118.47;90.63;;;;;;;0.32;83.77;103480.94;5096137;28;20020;-59
2023/01/25 05:00:17;;;;;;;124.53;92.57;;;;;;;0.33;83.78;103480.13;5095414;28;20081;-59
2023/01/25 05:02:43;;;;;;;121.83;89.57;;;;;;;0.38;84.22;103477.59;5094219;28;20024;-59
2023/01/25 05:05:09;;;;;;;125.37;91.37;;;;;;;0.44;83.64;103475.09;5094064;28;20047;-59
2023/01/25 05:07:34;;;;;;;125.77;91.53;;;;;;;0.42;84.37;103467.22;5093785;28;20039;-59
2023/01/25 05:10:00;;;;;;;118.93;89.30;;;;;;;0.46;83.60;103465.53;5093276;28;20024;-60
2023/01/25 05:12:25;;;;;;;121.03;88.63;;;;;;;0.35;84.24;103457.44;5095347;28;20460;-59
2023/01/25 05:14:51;;;;;;;122.10;91.77;;;;;;;0.53;83.25;103459.59;5093646;28;20024;-60
2023/01/25 05:17:16;;;;;;;116.60;87.70;;;;;;;0.47;83.79;103461.19;5093812;28;20070;-59
2023/01/25 05:19:41;;;;;;;118.97;91.10;;;;;;;0.40;83.74;103465.41;5095040;28;20056;-59
2023/01/25 05:22:13;;;;;;;120.73;91.40;;;;;;;0.48;83.56;103452.50;5093784;28;20379;-60
2023/01/25 05:24:40;;;;;;;120.03;89.70;;;;;;;0.47;83.78;103458.56;5107283;28;20028;-59
2023/01/25 05:27:07;;;;;;;121.07;92.83;;;;;;;0.50;83.91;103462.16;5080640;28;20019;-59
2023/01/25 05:29:35;;;;;;;123.70;91.63;;;;;;;0.40;84.31;103455.81;5115199;28;20019;-59
2023/01/25 05:32:08;;;;;;;119.67;89.70;;;;;;;0.39;84.29;103455.81;5093756;28;20031;-59
2023/01/25 05:34:35;;;;;;;120.47;89.77;;;;;;;0.40;84.38;103452.31;5109177;28;20455;-59
2023/01/25 05:37:01;;;;;;;121.63;91.63;;;;;;;0.33;84.55;103448.72;5105756;28;20097;-61
2023/01/25 05:39:26;;;;;;;118.27;88.43;;;;;;;0.37;84.73;103447.91;5097227;28;20049;-60
2023/01/25 05:41:52;;;;;;;115.67;88.57;;;;;;;0.37;84.53;103441.78;5106290;28;20032;-59
2023/01/25 05:44:17;;;;;;;120.13;89.73;;;;;;;0.41;84.69;103451.47;5092029;28;20482;-60
2023/01/25 05:46:43;;;;;;;116.90;88.67;;;;;;;0.37;84.03;103447.91;5112998;28;20051;-59
2023/01/25 05:49:09;;;;;;;117.30;86.87;;;;;;;0.31;84.17;103447.78;5108141;28;20606;-60
2023/01/25 05:51:37;;;;;;;114.97;87.60;;;;;;;0.23;83.70;103457.19;5087417;28;20020;-60
2023/01/25 05:54:03;;;;;;;117.00;87.43;;;;;;;0.10;84.63;103450.81;5093747;28;20016;-59
2023/01/25 05:56:29;;;;;;;120.90;90.20;;;;;;;0.14;84.34;103444.78;5112962;28;20481;-60
2023/01/25 05:58:56;;;;;;;123.67;92.03;;;;;;;0.18;85.13;103453.63;5095263;28;20116;-59
2023/01/25 06:01:22;;;;;;;118.43;90.03;;;;;;;0.25;84.89;103452.88;5090859;28;20382;-59
2023/01/25 06:03:48;;;;;;;119.80;91.70;;;;;;;0.17;84.34;103434.38;5107267;28;20019;-60
2023/01/25 06:06:13;;;;;;;122.47;89.20;;;;;;;0.11;83.83;103436.00;5100961;28;20024;-59
2023/01/25 06:08:40;;;;;;;118.23;89.47;;;;;;;0.20;84.77;103447.53;5113478;28;20096;-59
2023/01/25 06:11:17;;;;;;;120.30;89.53;;;;;;;0.22;84.34;103455.44;5114582;28;20035;-59
2023/01/25 06:13:42;;;;;;;118.47;88.97;;;;;;;0.23;84.77;103455.44;5114324;28;20026;-59
2023/01/25 06:16:08;;;;;;;114.93;85.87;;;;;;;0.23;84.43;103450.22;5096100;28;20020;-59
2023/01/25 06:18:34;;;;;;;109.37;85.10;;;;;;;0.21;83.86;103448.44;5112964;28;20060;-60
2023/01/25 06:21:01;;;;;;;112.70;87.07;;;;;;;0.15;83.78;103453.53;5095291;28;20056;-60
2023/01/25 06:23:27;;;;;;;115.03;87.43;;;;;;;0.15;83.94;103445.69;5109180;28;20034;-59
2023/01/25 06:25:57;;;;;;;113.53;86.40;;;;;;;0.25;84.53;103447.66;5113923;28;20098;-59
2023/01/25 06:28:22;;;;;;;110.20;83.45;;;;;;;0.16;84.29;103442.22;5096147;28;20046;-59
2023/01/25 06:30:47;;;;;;;113.93;85.03;;;;;;;0.19;83.72;103461.47;5114144;28;20055;-60
2023/01/25 06:33:13;;;;;;;108.63;81.17;;;;;;;0.19;84.23;103453.63;5113761;28;20466;-59
2023/01/25 06:35:39;;;;;;;108.77;82.80;;;;;;;0.10;83.39;103452.56;5114093;28;20024;-59
2023/01/25 06:38:05;;;;;;;114.07;80.97;;;;;;;0.05;84.06;103449.81;5113810;28;20509;-59
2023/01/25 06:40:30;;;;;;;105.17;81.30;;;;;;;-0.03;84.16;103452.28;5091614;28;20032;-59
2023/01/25 06:43:05;;;;;;;103.93;80.57;;;;;;;-0.07;85.00;103449.53;5093843;28;20115;-59
2023/01/25 06:45:30;;;;;;;109.43;83.20;;;;;;;-0.04;85.43;103449.59;5093238;28;20051;-60
2023/01/25 06:47:56;;;;;;;104.93;81.43;;;;;;;-0.02;84.96;103450.53;5092511;28;20024;-59
2023/01/25 06:50:21;;;;;;;109.67;84.63;;;;;;;-0.05;85.35;103450.47;5092031;28;20107;-59
2023/01/25 06:52:53;;;;;;;108.23;80.53;;;;;;;-0.06;84.73;103448.69;5092596;28;20024;-59
2023/01/25 06:55:19;;;;;;;108.53;82.23;;;;;;;-0.07;84.63;103450.41;5095732;28;20106;-59
2023/01/25 06:57:45;;;;;;;104.10;80.73;;;;;;;-0.09;84.87;103456.47;5095748;28;20432;-59
2023/01/25 07:00:11;;;;;;;107.60;82.13;;;;;;;-0.02;84.28;103446.19;5092986;28;20054;-60
2023/01/25 07:02:36;;;;;;;104.73;79.67;;;;;;;0.08;84.83;103447.28;5093185;28;20035;-59
2023/01/25 07:05:02;;;;;;;106.50;80.97;;;;;;;-0.02;84.56;103433.09;5092993;28;20024;-59
2023/01/25 07:07:27;;;;;;;106.83;81.67;;;;;;;-0.10;84.77;103432.03;5092764;28;20495;-59
2023/01/25 07:09:52;;;;;;;101.13;78.80;;;;;;;-0.04;83.92;103433.91;5091178;28;20032;-60
2023/01/25 07:12:19;;;;;;;99.77;77.33;;;;;;;-0.03;84.67;103438.28;5092970;28;20482;-59
2023/01/25 07:14:46;;;;;;;99.50;77.83;;;;;;;-0.08;84.49;103442.56;5093062;28;20028;-60
2023/01/25 07:17:12;;;;;;;109.03;81.60;;;;;;;-0.09;85.23;103432.91;5092892;28;20020;-59
2023/01/25 07:19:37;;;;;;;104.57;81.67;;;;;;;-0.01;85.26;103442.72;5092042;28;20045;-60
2023/01/25 07:22:03;;;;;;;102.13;79.43;;;;;;;-0.11;84.82;103437.25;5092531;28;20020;-60
2023/01/25 07:24:28;;;;;;;101.80;79.93;;;;;;;-0.05;85.10;103451.34;5092381;28;20023;-59
2023/01/25 07:26:54;;;;;;;106.50;80.13;;;;;;;-0.09;85.05;103454.75;5092856;28;20020;-59
2023/01/25 07:29:22;;;;;;;99.50;77.10;;;;;;;-0.10;85.16;103450.34;5092398;28;20156;-60
2023/01/25 07:31:47;;;;;;;104.27;80.50;;;;;;;-0.13;84.88;103442.44;5093124;28;20020;-60
2023/01/25 07:34:13;;;;;;;105.73;82.50;;;;;;;-0.13;84.91;103441.56;5094529;28;20045;-60
2023/01/25 07:36:39;;;;;;;103.50;79.90;;;;;;;-0.10;84.68;103437.28;5112104;28;20023;-59
2023/01/25 07:39:08;;;;;;;99.50;76.93;;;;;;;-0.10;84.20;103434.66;5100839;28;20351;-60
2023/01/25 07:41:34;;;;;;;106.93;80.77;;;;;;;-0.18;84.98;103419.63;5096351;28;20024;-59
2023/01/25 07:43:59;;;;;;;103.30;80.63;;;;;;;-0.20;84.55;103429.19;5102486;28;20816;-60
2023/01/25 07:46:25;;;;;;;104.57;81.13;;;;;;;-0.18;85.03;103422.25;5098870;28;20077;-61
2023/01/25 07:48:51;;;;;;;107.20;80.60;;;;;;;-0.17;84.92;103426.66;5094028;28;20467;-62
2023/01/25 07:51:22;;;;;;;107.83;82.50;;;;;;;-0.21;84.80;103427.41;5077012;28;20028;-61
2023/01/25 07:53:53;;;;;;;105.73;79.70;;;;;;;-0.15;85.42;103427.56;5093861;28;20034;-61
2023/01/25 07:56:21;;;;;;;104.87;81.73;;;;;;;-0.18;85.15;103428.34;5099501;28;20435;-61
2023/01/25 07:58:50;;;;;;;103.80;80.53;;;;;;;-0.14;85.68;103430.22;5090845;28;20016;-61
2023/01/25 08:01:18;;;;;;;107.70;80.60;;;;;;;-0.14;85.90;103427.59;5110611;28;20031;-62
2023/01/25 08:03:45;;;;;;;107.83;81.53;;;;;;;-0.12;86.02;103430.22;5092893;28;20027;-62
2023/01/25 08:06:10;;;;;;;107.80;79.77;;;;;;;-0.13;85.71;103433.72;5094063;28;20049;-61
2023/01/25 08:08:39;;;;;;;107.70;82.20;;;;;;;-0.20;85.51;103417.00;5093513;28;20051;-62
2023/01/25 08:11:12;;;;;;;104.77;79.43;;;;;;;-0.09;85.71;103425.97;5111164;28;20039;-61
2023/01/25 08:13:38;;;;;;;108.60;82.93;;;;;;;-0.12;85.60;103418.06;5103710;28;20444;-61
2023/01/25 08:16:04;;;;;;;109.80;82.93;;;;;;;-0.10;85.12;103418.97;5070334;28;20027;-62
2023/01/25 08:18:29;;;;;;;108.23;82.93;;;;;;;-0.07;85.64;103412.94;5091649;28;20032;-62
2023/01/25 08:20:59;;;;;;;110.27;83.17;;;;;;;-0.09;85.77;103420.75;5108733;28;20364;-62
2023/01/25 08:23:28;;;;;;;107.60;83.65;;;;;;;-0.04;85.60;103423.47;5112239;28;20031;-62
2023/01/25 08:25:55;;;;;;;108.83;80.03;;;;;;;-0.14;85.49;103419.75;5111116;28;20032;-61
2023/01/25 08:28:21;;;;;;;110.17;82.43;;;;;;;-0.14;85.57;103422.38;5085207;28;20467;-62
2023/01/25 08:30:46;;;;;;;108.10;82.43;;;;;;;-0.12;85.24;103410.22;5107034;28;20031;-62
2023/01/25 08:33:12;;;;;;;110.27;83.57;;;;;;;-0.18;84.51;103402.22;5084005;28;20374;-62
2023/01/25 08:35:37;;;;;;;109.63;81.57;;;;;;;-0.21;85.27;103412.59;5110996;28;20502;-62
2023/01/25 08:38:03;;;;;;;106.60;82.10;;;;;;;-0.24;85.09;103413.44;5092959;28;20062;-61
2023/01/25 08:40:29;;;;;;;110.03;82.93;;;;;;;-0.24;85.41;103416.06;5111129;28;20076;-61
2023/01/25 08:42:54;;;;;;;110.20;82.93;;;;;;;-0.21;85.35;103409.97;5093169;28;20020;-61
2023/01/25 08:45:20;;;;;;;107.80;81.17;;;;;;;-0.26;85.21;103411.63;5110399;28;20023;-62
2023/01/25 08:47:46;;;;;;;114.40;83.30;;;;;;;-0.27;84.96;103410.72;5110933;28;20437;-61
2023/01/25 08:50:11;;;;;;;114.40;84.30;;;;;;;-0.30;84.83;103410.66;5111216;28;20525;-61
2023/01/25 08:52:37;;;;;;;107.73;81.63;;;;;;;-0.27;84.71;103418.56;5110899;28;20023;-61
2023/01/25 08:55:04;;;;;;;110.27;81.17;;;;;;;-0.25;85.03;103401.19;5092453;28;20457;-61
2023/01/25 08:57:30;;;;;;;113.97;83.43;;;;;;;-0.14;85.36;103414.53;5106684;28;20024;-62
2023/01/25 08:59:55;;;;;;;113.20;80.57;;;;;;;-0.15;85.06;103411.84;5105867;28;20411;-62
2023/01/25 09:02:21;;;;;;;113.43;83.80;;;;;;;-0.23;84.27;103406.47;5110638;28;20019;-61
2023/01/25 09:04:46;;;;;;;114.60;83.77;;;;;;;-0.12;84.58;103398.84;5091700;28;20020;-61
2023/01/25 09:07:11;;;;;;;113.33;84.40;;;;;;;-0.16;84.39;103400.53;5092606;28;20036;-61
2023/01/25 09:09:37;;;;;;;116.97;86.70;;;;;;;-0.17;84.61;103395.28;5090703;28;20036;-62
2023/01/25 09:12:02;;;;;;;110.33;82.97;;;;;;;-0.22;84.56;103386.44;5109134;28;20023;-62
2023/01/25 09:14:30;;;;;;;112.43;82.53;;;;;;;-0.26;84.86;103380.25;5089897;28;20023;-62
2023/01/25 09:16:55;;;;;;;114.33;84.40;;;;;;;-0.23;84.77;103388.16;5107128;28;20031;-61
2023/01/25 09:19:21;;;;;;;118.50;86.30;;;;;;;-0.24;85.26;103395.13;5104794;28;20432;-61
2023/01/25 09:21:47;;;;;;;115.33;82.83;;;;;;;-0.27;85.05;103386.31;5113374;28;20097;-61
2023/01/25 09:24:13;;;;;;;118.67;85.57;;;;;;;-0.31;85.22;103394.94;5109077;28;20487;-62
2023/01/25 09:26:40;;;;;;;115.27;83.77;;;;;;;-0.27;85.97;103383.69;5111280;28;20019;-62
2023/01/25 09:29:07;;;;;;;116.23;84.37;;;;;;;-0.34;85.08;103384.41;5108890;28;20030;-62
2023/01/25 09:31:33;;;;;;;116.23;85.27;;;;;;;-0.18;85.54;103385.63;5111065;28;20028;-60
2023/01/25 09:33:59;;;;;;;118.90;87.97;;;;;;;-0.25;85.38;103379.41;5088408;28;20020;-61
2023/01/25 09:36:24;;;;;;;117.17;86.53;;;;;;;-0.17;85.20;103385.69;5096293;28;20024;-62
2023/01/25 09:38:50;;;;;;;116.80;84.80;;;;;;;-0.25;85.73;103384.63;5113925;28;20208;-62
2023/01/25 09:41:24;;;;;;;123.10;88.17;;;;;;;-0.28;86.06;103390.66;5113914;28;20024;-62
2023/01/25 09:44:08;;;;;;;119.50;85.70;;;;;;;-0.22;85.88;103382.09;5114258;28;20601;-61
2023/01/25 09:46:44;;;;;;;116.63;85.97;;;;;;;-0.17;86.66;103375.22;5112784;28;20031;-61
2023/01/25 09:49:18;;;;;;;114.13;84.17;;;;;;;-0.14;86.36;103382.25;5113365;28;20474;-61
2023/01/25 09:52:07;;;;;;;117.73;84.70;;;;;;;-0.10;85.66;103371.88;5113209;28;20031;-62
2023/01/25 09:54:39;;;;;;;118.53;85.50;;;;;;;-0.12;85.67;103378.84;5112777;28;20107;-61
2023/01/25 09:57:30;;;;;;;120.23;88.03;;;;;;;-0.05;85.41;103380.72;5113243;28;20475;-62
2023/01/25 10:00:01;;;;;;;119.73;87.27;;;;;;;-0.10;85.32;103379.72;5083260;28;20047;-61
2023/01/25 10:02:44;;;;;;;120.23;86.07;;;;;;;-0.05;85.55;103380.72;5109888;28;20016;-61
2023/01/25 10:05:31;;;;;;;121.03;85.90;;;;;;;-0.04;85.26;103381.59;5098962;28;20043;-62
2023/01/25 10:08:05;;;;;;;120.20;86.10;;;;;;;-0.20;84.15;103384.75;5110796;28;20104;-60
2023/01/25 10:10:41;;;;;;;122.80;85.97;;;;;;;-0.21;85.12;103383.84;5092573;28;20031;-62
2023/01/25 10:13:30;;;;;;;127.10;89.23;;;;;;;-0.16;84.61;103382.22;5093474;28;20047;-62
2023/01/25 10:16:01;;;;;;;124.10;87.57;;;;;;;-0.25;84.89;103367.19;5096272;28;20023;-62
2023/01/25 10:18:52;;;;;;;128.20;89.57;;;;;;;-0.21;85.08;103364.66;5113142;28;20023;-62
2023/01/25 10:21:20;;;;;;;129.80;90.00;;;;;;;-0.17;85.11;103363.88;5094311;28;20016;-60
2023/01/25 10:24:18;;;;;;;124.97;88.27;;;;;;;-0.18;85.69;103351.66;5112979;28;20023;-61
2023/01/25 10:26:51;;;;;;;129.77;90.00;;;;;;;-0.22;85.45;103360.28;5094155;28;20015;-61
2023/01/25 10:29:22;;;;;;;127.37;88.70;;;;;;;-0.16;84.88;103358.69;5106243;28;20467;-61
2023/01/25 10:31:49;;;;;;;125.57;90.50;;;;;;;-0.17;85.25;103359.53;5108319;28;20030;-61
2023/01/25 10:34:26;;;;;;;127.20;88.80;;;;;;;-0.15;85.19;103346.47;5088783;28;20038;-62
2023/01/25 10:36:56;;;;;;;124.67;88.50;;;;;;;-0.08;85.15;103348.41;5113026;28;20068;-61
2023/01/25 10:39:22;;;;;;;126.37;89.80;;;;;;;-0.13;85.73;103350.91;5111066;28;20020;-62
2023/01/25 10:41:54;;;;;;;123.90;84.93;;;;;;;-0.22;85.27;103339.38;5112313;28;20030;-61
2023/01/25 10:44:24;;;;;;;120.23;87.07;;;;;;;-0.24;84.80;103326.25;5087835;28;20053;-61
2023/01/25 10:47:17;;;;;;;120.70;86.82;;;;;;;-0.13;84.87;103326.47;5102447;28;20118;-61
2023/01/25 10:49:51;;;;;;;120.90;85.53;;;;;;;-0.06;84.94;103315.28;5104922;28;20038;-61
2023/01/25 10:52:29;;;;;;;122.00;87.27;;;;;;;0.01;84.43;103301.50;5100448;28;20039;-61
2023/01/25 10:55:00;;;;;;;119.30;84.97;;;;;;;0.01;84.34;103311.09;5086645;28;20028;-61
2023/01/25 10:57:26;;;;;;;118.20;85.30;;;;;;;-0.11;84.11;103298.63;5110475;28;20030;-62
2023/01/25 10:59:51;;;;;;;119.40;87.47;;;;;;;-0.12;84.29;103299.47;5099375;28;20031;-61
2023/01/25 11:02:34;;;;;;;120.90;86.17;;;;;;;-0.01;84.96;103296.22;5101884;28;20028;-61
2023/01/25 11:05:24;;;;;;;119.83;85.10;;;;;;;-0.04;83.97;103298.78;5106631;28;20106;-61
2023/01/25 11:07:49;;;;;;;121.37;85.07;;;;;;;-0.08;84.49;103290.84;5099514;28;20056;-61
2023/01/25 11:10:30;;;;;;;116.10;82.20;;;;;;;-0.05;84.35;103285.69;5107556;28;20497;-61
2023/01/25 11:13:13;;;;;;;120.83;84.53;;;;;;;-0.03;84.49;103273.50;5113432;28;20360;-61